• Join FlightAware (Why Join?)
  • Login
  • US Flag 
02:48PM EDT


 

Airport Tracker/Info


-or-


 

Live Flight TrackerFlight Track Log ✈ N629SA ✈ 11-May-2013 ✈ KEYW - KAPF

Flight Track Log - Related Links

Times and Time Zones

All times are in EDT time to prevent confusion due to time zone crossing. See the N629SA flight status page for this flight to view local times or setup timezone preferences in your user account.

Time Position Orientation Groundspeed Altitude Reporting Facility
EDT Latitude Longitude Course Direction KTS MPH feet Rate Location/Type
11:50AM 24.7192 -81.7306 North 140 161 5,000  Level Miami Center
11:51AM 24.7525 -81.7364 351° North 134 154 6,000 900 Climbing Miami Center
11:52AM 24.7607 -81.9006 323° Northwest  Level FlightAware Approximate
11:52AM 24.7878 -81.7425 351° North 127 146 6,900  Level Miami Center
11:53AM 24.7942 -81.9285 323° Northwest  Level FlightAware Approximate
11:53AM 24.8211 -81.7414 North 122 140 7,800  Level Miami Center
11:54AM 24.8296 -81.9531 329° Northwest  Level FlightAware Approximate
11:54AM 24.8544 -81.7428 358° North 122 140 8,600  Level Miami Center
11:55AM 24.8680 -81.9641 North  Level FlightAware Approximate
11:55AM 24.8922 -81.7419 North 122 140 9,000  Level Miami Center
11:56AM 24.9095 -81.9582 North  Level FlightAware Approximate
11:56AM 24.9339 -81.7436 358° North 133 153 9,000  Level Miami Center
11:57AM 24.9778 -81.7456 358° North 146 168 8,900 -60 Descending Miami Center
11:58AM 25.0194 -81.7472 358° North 146 168 8,900  Level Miami Center
11:59AM 25.0592 -81.7464 North 146 168 8,900  Level Miami Center
12:00PM 25.1008 -81.7481 358° North 141 162 8,900  Level Miami Center
12:01PM 25.1425 -81.7497 358° North 141 162 8,900  Level Miami Center
12:02PM 25.1842 -81.7514 358° North 141 162 8,900  Level Miami Center
12:03PM 25.2258 -81.7531 358° North 141 162 8,900  Level Miami Center
12:04PM 25.2675 -81.7547 358° North 141 162 8,900  Level Miami Center
12:05PM 25.3094 -81.7542 North 141 162 8,900 -240 Level Miami Center
12:06PM 25.3572 -81.7561 358° North 146 168 8,500 -480 Descending Miami Center
12:07PM 25.4033 -81.7578 358° North 157 181 8,000 -480 Descending Miami Center
12:08PM 25.4514 -81.7553 North 162 186 7,600 -480 Descending Miami Center
12:09PM 25.4992 -81.7594 355° North 167 192 7,100 -540 Descending Miami Center
12:10PM 25.5472 -81.7614 358° North 167 192 6,600 -540 Descending Miami Center
12:11PM 25.5953 -81.7611 360° North 167 192 6,100 -540 Descending Miami Center
12:12PM 25.6431 -81.7631 358° North 167 192 5,600 -540 Descending Miami Center
12:13PM 25.6953 -81.7628 360° North 167 192 5,100 -540 Descending Miami Center
12:14PM 25.7433 -81.7647 358° North 162 186 4,600 -540 Descending Miami Center
12:15PM 25.7892 -81.7667 358° North 162 186 4,100 -360 Descending Miami Center
12:16PM 25.8372 -81.7664 360° North 162 186 3,900 -300 Descending Miami Center
12:17PM 25.8811 -81.7636 North 157 181 3,600 -420 Descending Miami Center
12:18PM 25.9275 -81.7539 11° North 157 181 3,100 -360 Descending Miami Center
12:19PM 25.9758 -81.7467 North 163 188 2,900 -120 Descending Miami Center
12:20PM 26.0178 -81.7392 North 158 182 2,900 -120 Level Miami Center
12:21PM 26.0619 -81.7317 North 158 182 2,700 -480 Descending Miami Center
12:22PM 26.1081 -81.7242 North 163 188 2,000 -720 Descending Miami Center
12:24PM 26.1388 -81.7553 318° Northwest  Level FlightAware Approximate
12:31PM 26.1500 -81.7667 North  Level FlightAware Approximate
12:32PM 26.1524 -81.7756 North  Level Estimated
12:33PM 26.1524 -81.7756 North  Level Estimated